createdAt,value
2019-05-17T00:00:01.180Z,15.54
2019-05-17T00:02:34.220Z,15.54
2019-05-17T00:05:07.016Z,15.56
2019-05-17T00:07:39.538Z,15.55
2019-05-17T00:10:12.580Z,15.56
2019-05-17T00:12:46.904Z,15.57
2019-05-17T00:15:18.219Z,15.53
2019-05-17T00:17:50.118Z,15.53
2019-05-17T00:20:22.405Z,15.52
2019-05-17T00:22:54.238Z,15.50
2019-05-17T00:25:27.362Z,15.49
2019-05-17T00:27:59.484Z,15.49
2019-05-17T00:30:31.743Z,15.48
2019-05-17T00:33:03.630Z,15.48
2019-05-17T00:35:37.643Z,15.51
2019-05-17T00:38:09.702Z,15.50
2019-05-17T00:40:41.712Z,15.50
2019-05-17T00:43:13.614Z,15.47
2019-05-17T00:45:46.803Z,15.47
2019-05-17T00:48:20.250Z,15.47
2019-05-17T00:50:54.106Z,15.47
2019-05-17T00:53:26.916Z,15.49
2019-05-17T00:55:59.011Z,15.50
2019-05-17T00:58:30.830Z,15.50
2019-05-17T01:01:02.818Z,15.46
2019-05-17T01:03:36.313Z,15.44
2019-05-17T01:06:10.324Z,15.44
2019-05-17T01:08:42.295Z,15.45
2019-05-17T01:11:16.377Z,15.44
2019-05-17T01:13:47.861Z,15.44
2019-05-17T01:16:19.833Z,15.44
2019-05-17T01:18:52.115Z,15.43
2019-05-17T01:21:26.268Z,15.43
2019-05-17T01:23:58.213Z,15.44
2019-05-17T01:26:30.351Z,15.43
2019-05-17T01:29:02.264Z,15.42
2019-05-17T01:31:34.196Z,15.43
2019-05-17T01:34:07.290Z,15.44
2019-05-17T01:36:40.153Z,15.44
2019-05-17T01:39:17.183Z,15.43
2019-05-17T01:41:46.842Z,15.42
2019-05-17T01:44:18.865Z,15.41
2019-05-17T01:46:50.741Z,15.32
2019-05-17T01:49:22.653Z,15.40
2019-05-17T01:51:56.869Z,15.38
2019-05-17T01:54:28.844Z,15.38
2019-05-17T01:57:00.969Z,15.38
2019-05-17T01:59:32.722Z,15.38
2019-05-17T02:02:07.759Z,15.39
2019-05-17T02:04:39.553Z,15.39
2019-05-17T02:07:11.999Z,15.40
2019-05-17T02:09:43.747Z,15.41
2019-05-17T02:12:17.309Z,15.42
2019-05-17T02:14:49.248Z,15.42
2019-05-17T02:17:22.490Z,15.43
2019-05-17T02:19:54.316Z,15.41
2019-05-17T02:22:27.196Z,15.38
2019-05-17T02:24:59.427Z,15.36
2019-05-17T02:27:38.226Z,15.34
2019-05-17T02:30:07.461Z,15.34
2019-05-17T02:32:43.103Z,15.33
2019-05-17T02:35:15.281Z,15.35
2019-05-17T02:37:47.474Z,15.34
2019-05-17T02:40:22.706Z,15.34
2019-05-17T02:42:54.677Z,15.32
2019-05-17T02:45:27.310Z,15.33
2019-05-17T02:47:59.386Z,15.33
2019-05-17T02:50:33.186Z,15.33
2019-05-17T02:53:05.410Z,15.34
2019-05-17T02:55:37.212Z,15.36
2019-05-17T02:58:09.079Z,15.37
2019-05-17T03:00:43.963Z,15.38
2019-05-17T03:03:14.657Z,15.38
2019-05-17T03:05:46.441Z,15.39
2019-05-17T03:08:18.544Z,15.41
2019-05-17T03:10:53.171Z,15.41
2019-05-17T03:13:24.041Z,15.40
2019-05-17T03:15:55.810Z,15.42
2019-05-17T03:18:27.685Z,15.42
2019-05-17T03:21:03.344Z,15.41
2019-05-17T03:23:33.357Z,15.42
2019-05-17T03:26:05.195Z,15.44
2019-05-17T03:28:37.094Z,15.44
2019-05-17T03:31:11.365Z,15.45
2019-05-17T03:33:45.928Z,15.47
2019-05-17T03:36:18.154Z,15.48
2019-05-17T03:38:53.438Z,15.49
2019-05-17T03:41:28.905Z,15.49
2019-05-17T03:43:58.262Z,15.53
2019-05-17T03:46:33.168Z,15.54
2019-05-17T03:49:04.174Z,15.57
2019-05-17T03:51:36.536Z,15.61
2019-05-17T03:54:09.084Z,15.65
2019-05-17T03:56:42.700Z,15.67
2019-05-17T03:59:14.591Z,15.69
2019-05-17T04:01:46.362Z,15.73
2019-05-17T04:04:18.562Z,15.78
2019-05-17T04:06:52.631Z,15.85
2019-05-17T04:09:24.630Z,15.92
2019-05-17T05:13:35.076Z,16.62
2019-05-17T05:16:06.845Z,16.60
2019-05-17T05:18:38.714Z,16.72
2019-05-17T05:21:12.222Z,16.88
2019-05-17T05:23:44.056Z,17.04
2019-05-17T05:26:15.863Z,17.12
2019-05-17T05:28:49.677Z,17.16
2019-05-17T05:31:22.772Z,17.14
2019-05-17T05:33:54.770Z,17.12
2019-05-17T05:36:26.573Z,17.06
2019-05-17T05:38:58.702Z,16.94
2019-05-17T05:41:32.036Z,16.97
2019-05-17T05:44:04.476Z,16.95
2019-05-17T05:46:36.341Z,16.75
2019-05-17T05:49:08.396Z,16.75
2019-05-17T05:51:42.279Z,16.76
2019-05-17T05:54:16.079Z,16.78
2019-05-17T05:56:48.830Z,16.74
2019-05-17T05:59:22.455Z,16.80
2019-05-17T06:01:54.950Z,16.82
2019-05-17T06:04:27.034Z,16.90
2019-05-17T06:06:58.817Z,16.89
2019-05-17T06:09:31.843Z,16.90
2019-05-17T06:12:03.812Z,16.94
2019-05-17T06:14:35.665Z,16.95
2019-05-17T06:17:07.481Z,17.03
2019-05-17T06:19:39.540Z,16.97
2019-05-17T06:22:12.014Z,17.09
2019-05-17T06:24:44.895Z,17.24
2019-05-17T06:27:16.744Z,17.42
2019-05-17T06:29:51.333Z,17.60
2019-05-17T06:32:23.000Z,17.73
2019-05-17T06:34:56.348Z,17.88
2019-05-17T06:37:28.164Z,17.97
2019-05-17T06:40:02.415Z,18.12
2019-05-17T06:42:40.962Z,18.22
2019-05-17T06:45:12.216Z,18.02
2019-05-17T06:47:43.104Z,18.13
2019-05-17T06:50:16.911Z,18.08
2019-05-17T06:52:49.014Z,18.12
2019-05-17T06:55:21.165Z,18.20
2019-05-17T06:57:53.628Z,18.26
2019-05-17T07:00:26.779Z,18.42
2019-05-17T07:03:00.541Z,18.65
2019-05-17T07:05:34.550Z,18.74
2019-05-17T07:08:06.459Z,18.79
2019-05-17T07:10:39.784Z,18.60
2019-05-17T07:13:11.834Z,18.30
2019-05-17T07:15:47.845Z,18.18
2019-05-17T07:18:19.319Z,18.19
2019-05-17T07:20:50.930Z,18.25
2019-05-17T07:23:23.065Z,18.38
2019-05-17T07:25:54.978Z,18.44
2019-05-17T07:28:26.877Z,18.49
2019-05-17T07:31:00.366Z,18.46
2019-05-17T07:33:32.527Z,18.43
2019-05-17T07:36:05.195Z,18.56
2019-05-17T07:38:39.481Z,18.62
2019-05-17T07:41:11.246Z,18.75
2019-05-17T07:57:10.169Z,19.57
2019-05-17T07:59:41.744Z,19.14
2019-05-17T08:02:13.642Z,19.09
2019-05-17T08:04:45.422Z,19.05
2019-05-17T08:07:19.525Z,19.08
2019-05-17T08:09:50.818Z,19.10
2019-05-17T08:12:22.831Z,19.17
2019-05-17T08:14:54.887Z,19.29
2019-05-17T08:17:27.209Z,19.35
2019-05-17T08:20:00.610Z,19.19
2019-05-17T08:22:33.031Z,19.28
2019-05-17T08:25:05.050Z,19.22
2019-05-17T08:27:37.180Z,19.08
2019-05-17T08:30:12.698Z,18.96
2019-05-17T08:32:44.968Z,18.88
2019-05-17T08:35:19.697Z,18.78
2019-05-17T08:37:53.540Z,18.65
2019-05-17T08:40:25.510Z,18.67
2019-05-17T08:43:00.006Z,18.74
2019-05-17T08:45:31.246Z,18.76
2019-05-17T08:48:03.452Z,18.88
2019-05-17T08:50:35.559Z,18.96
2019-05-17T08:53:07.698Z,19.09
2019-05-17T08:55:40.862Z,19.21
2019-05-17T08:58:13.338Z,19.57
2019-05-17T09:00:45.166Z,19.94
2019-05-17T09:03:19.433Z,20.42
2019-05-17T09:05:52.711Z,20.59
2019-05-17T09:08:24.264Z,20.57
2019-05-17T09:10:56.099Z,20.60
2019-05-17T09:13:29.853Z,20.54
2019-05-17T09:16:02.262Z,20.43
2019-05-17T09:18:34.085Z,20.22
2019-05-17T09:21:06.189Z,20.07
2019-05-17T09:23:39.678Z,19.98
2019-05-17T09:26:11.595Z,19.90
2019-05-17T09:28:43.400Z,19.90
2019-05-17T09:31:15.197Z,19.80
2019-05-17T09:33:49.571Z,19.71
2019-05-17T09:36:21.065Z,19.77
2019-05-17T09:38:52.893Z,19.77
2019-05-17T09:41:24.701Z,19.74
2019-05-17T09:44:09.610Z,19.70
2019-05-17T09:46:31.049Z,19.64
2019-05-17T09:49:03.050Z,19.84
2019-05-17T09:51:35.089Z,20.25
2019-05-17T09:54:10.095Z,20.82
2019-05-17T09:56:41.488Z,21.47
2019-05-17T09:59:13.680Z,22.14
2019-05-17T10:01:45.583Z,22.36
2019-05-17T10:04:19.754Z,22.34
2019-05-17T10:06:52.891Z,22.46
2019-05-17T10:09:28.607Z,22.68
2019-05-17T10:12:00.404Z,22.91
2019-05-17T10:14:32.376Z,23.18
2019-05-17T10:17:04.883Z,23.12
2019-05-17T10:19:36.817Z,23.03
2019-05-17T10:22:10.402Z,22.74
2019-05-17T10:24:42.639Z,22.34
2019-05-17T10:27:14.835Z,22.32
2019-05-17T10:29:46.772Z,22.23
2019-05-17T10:32:20.495Z,22.26
2019-05-17T10:34:52.431Z,21.82
2019-05-17T10:37:24.398Z,21.64
2019-05-17T10:39:56.455Z,21.28
2019-05-17T10:42:30.597Z,20.84
2019-05-17T10:45:02.143Z,20.86
2019-05-17T10:47:34.000Z,20.65
2019-05-17T10:50:07.076Z,20.51
2019-05-17T10:52:40.875Z,20.27
2019-05-17T10:55:13.168Z,20.25
2019-05-17T10:57:44.999Z,20.26
2019-05-17T11:00:19.824Z,20.25
2019-05-17T11:02:52.425Z,20.32
2019-05-17T11:05:24.515Z,20.22
2019-05-17T11:07:56.983Z,20.14
2019-05-17T11:10:30.000Z,20.32
2019-05-17T11:13:02.033Z,20.88
2019-05-17T11:15:34.102Z,21.69
2019-05-17T11:18:05.980Z,22.23
2019-05-17T11:20:38.250Z,22.62
2019-05-17T11:23:10.435Z,22.84
2019-05-17T11:25:45.679Z,22.83
2019-05-17T11:28:16.578Z,22.78
2019-05-17T11:30:49.160Z,22.88
2019-05-17T11:33:21.039Z,22.57
2019-05-17T11:35:53.198Z,22.73
2019-05-17T11:38:25.536Z,22.50
2019-05-17T11:40:57.876Z,22.54
2019-05-17T11:43:30.643Z,22.71
2019-05-17T11:46:02.811Z,23.24
2019-05-17T11:48:35.012Z,24.16
2019-05-17T11:51:07.400Z,24.89
2019-05-17T11:53:40.337Z,24.81
2019-05-17T11:56:12.730Z,24.94
2019-05-17T11:58:44.925Z,25.14
2019-05-17T12:01:17.280Z,25.39
2019-05-17T12:03:49.138Z,25.58
2019-05-17T12:06:21.194Z,24.99
2019-05-17T12:08:53.350Z,24.50
2019-05-17T12:11:25.847Z,24.11
2019-05-17T12:13:58.156Z,23.08
2019-05-17T12:16:30.458Z,22.80
2019-05-17T12:19:02.733Z,22.29
2019-05-17T12:21:35.120Z,22.27
2019-05-17T12:24:08.196Z,22.01
2019-05-17T12:26:40.889Z,21.69
2019-05-17T12:29:13.449Z,21.51
2019-05-17T12:31:45.820Z,21.35
2019-05-17T12:34:20.235Z,21.24
2019-05-17T12:36:52.987Z,21.04
2019-05-17T12:39:25.169Z,20.80
2019-05-17T12:41:57.784Z,20.67
2019-05-17T12:44:29.883Z,20.62
2019-05-17T12:47:01.767Z,20.44
2019-05-17T12:49:33.835Z,20.39
2019-05-17T12:52:06.125Z,20.36
2019-05-17T12:54:38.364Z,20.28
2019-05-17T12:57:10.591Z,20.19
2019-05-17T12:59:42.890Z,19.95
2019-05-17T13:02:15.278Z,18.92
2019-05-17T13:04:47.409Z,18.65
2019-05-17T13:07:20.043Z,18.02
2019-05-17T13:09:52.545Z,17.83
2019-05-17T13:12:24.737Z,17.57
2019-05-17T13:14:56.865Z,17.10
2019-05-17T13:17:29.210Z,16.57
2019-05-17T13:20:02.208Z,17.17
2019-05-17T13:22:35.962Z,17.71
2019-05-17T13:25:10.041Z,18.12
2019-05-17T13:27:43.176Z,18.17
2019-05-17T13:30:16.210Z,18.30
2019-05-17T13:32:48.621Z,18.24
2019-05-17T13:35:21.283Z,18.16
2019-05-17T13:37:54.072Z,18.43
2019-05-17T13:40:27.243Z,18.59
2019-05-17T13:42:59.957Z,18.51
2019-05-17T13:45:32.567Z,18.44
2019-05-17T13:48:05.304Z,18.66
2019-05-17T13:50:38.038Z,18.71
2019-05-17T13:53:11.000Z,18.84
2019-05-17T13:55:43.743Z,18.91
2019-05-17T13:58:16.396Z,19.12
2019-05-17T14:00:49.332Z,19.25
2019-05-17T14:03:21.862Z,19.40
2019-05-17T14:05:54.241Z,19.40
2019-05-17T14:08:27.459Z,19.39
2019-05-17T14:11:00.117Z,19.42
2019-05-17T14:13:32.876Z,19.50
2019-05-17T14:16:05.066Z,20.53
2019-05-17T14:18:37.512Z,23.02
2019-05-17T14:21:10.413Z,22.98
2019-05-17T14:23:42.571Z,23.74
2019-05-17T14:26:14.926Z,27.17
2019-05-17T14:28:47.629Z,31.97
2019-05-17T14:31:20.160Z,35.19
2019-05-17T14:33:53.203Z,37.48
2019-05-17T14:36:25.743Z,39.30
2019-05-17T14:38:57.981Z,40.61
2019-05-17T14:41:30.035Z,41.66
2019-05-17T14:44:02.128Z,42.56
2019-05-17T14:46:34.048Z,43.77
2019-05-17T14:49:06.137Z,44.43
2019-05-17T14:51:37.992Z,44.95
2019-05-17T14:54:10.107Z,44.95
2019-05-17T14:56:42.013Z,44.65
2019-05-17T14:59:15.216Z,44.94
2019-05-17T15:01:47.075Z,44.76
2019-05-17T15:04:19.286Z,43.84
2019-05-17T15:06:51.104Z,43.35
2019-05-17T15:09:23.503Z,44.44
2019-05-17T15:11:55.677Z,44.79
2019-05-17T15:14:29.654Z,44.65
2019-05-17T15:17:01.535Z,45.18
2019-05-17T15:19:33.937Z,45.06
2019-05-17T15:22:05.862Z,44.79
2019-05-17T15:24:37.970Z,44.91
2019-05-17T15:27:10.212Z,43.99
2019-05-17T15:29:42.209Z,44.96
2019-05-17T15:32:14.003Z,44.95
2019-05-17T15:34:46.092Z,44.68
2019-05-17T15:37:18.193Z,45.05
2019-05-17T15:39:50.342Z,45.57
2019-05-17T15:42:22.520Z,45.20
2019-05-17T15:44:54.409Z,45.06
2019-05-17T15:47:27.436Z,45.40
2019-05-17T15:49:59.417Z,45.49
2019-05-17T15:52:31.242Z,45.43
2019-05-17T15:55:03.231Z,45.18
2019-05-17T15:57:35.297Z,45.04
2019-05-17T16:00:08.463Z,44.04
2019-05-17T16:02:40.527Z,43.79
2019-05-17T16:05:12.622Z,44.04
2019-05-17T16:07:44.506Z,43.92
2019-05-17T16:10:16.774Z,43.76
2019-05-17T16:13:01.978Z,43.52
2019-05-17T16:15:22.862Z,43.35
2019-05-17T16:17:56.836Z,43.03
2019-05-17T16:20:29.041Z,41.83
2019-05-17T16:23:01.038Z,40.98
2019-05-17T16:25:34.062Z,41.09
2019-05-17T16:28:05.962Z,39.53
2019-05-17T16:30:37.939Z,39.56
2019-05-17T16:33:11.011Z,40.07
2019-05-17T16:35:44.188Z,39.44
2019-05-17T16:38:16.045Z,37.69
2019-05-17T16:40:47.928Z,36.63
2019-05-17T16:43:20.944Z,34.45
2019-05-17T16:45:53.151Z,32.00
2019-05-17T16:48:25.088Z,30.81
2019-05-17T16:50:57.189Z,30.37
2019-05-17T16:53:29.155Z,29.39
2019-05-17T16:56:01.020Z,28.15
2019-05-17T16:58:33.105Z,27.12
2019-05-17T17:01:06.284Z,26.28
2019-05-17T17:03:44.212Z,25.56
2019-05-17T17:06:12.876Z,24.98
2019-05-17T17:08:44.995Z,24.40
2019-05-17T17:11:17.123Z,23.95
2019-05-17T17:13:49.430Z,23.49
2019-05-17T17:16:21.640Z,23.09
2019-05-17T17:18:53.456Z,22.74
2019-05-17T17:21:25.573Z,22.45
2019-05-17T17:23:57.390Z,22.17
2019-05-17T17:26:29.618Z,21.90
2019-05-17T17:29:02.162Z,21.69
2019-05-17T17:31:34.275Z,21.51
2019-05-17T17:34:06.313Z,21.36
2019-05-17T17:36:39.158Z,21.20
2019-05-17T17:39:10.990Z,21.04
2019-05-17T17:41:43.024Z,20.89
2019-05-17T17:44:15.086Z,20.73
2019-05-17T17:46:46.953Z,20.61
2019-05-17T17:49:18.734Z,20.42
2019-05-17T17:51:50.796Z,20.26
2019-05-17T17:54:22.629Z,20.10
2019-05-17T17:56:55.255Z,19.96
2019-05-17T17:59:27.315Z,19.83
2019-05-17T18:01:59.962Z,19.70
2019-05-17T18:04:31.993Z,19.58
2019-05-17T18:07:05.167Z,19.46
2019-05-17T18:09:36.999Z,19.32
2019-05-17T18:12:08.861Z,19.21
2019-05-17T18:14:40.729Z,19.10
2019-05-17T18:17:12.634Z,18.97
2019-05-17T18:19:44.462Z,18.84
2019-05-17T18:22:16.324Z,18.74
2019-05-17T18:24:48.278Z,18.62
2019-05-17T18:27:20.201Z,18.49
2019-05-17T18:29:52.173Z,18.38
2019-05-17T18:32:24.357Z,18.26
2019-05-17T18:34:56.195Z,18.17
2019-05-17T18:37:28.313Z,18.05
2019-05-17T18:40:00.317Z,17.96
2019-05-17T18:42:32.418Z,17.86
2019-05-17T18:45:04.656Z,17.77
2019-05-17T18:47:36.656Z,17.67
2019-05-17T18:50:10.146Z,17.57
2019-05-17T18:52:42.786Z,17.47
2019-05-17T18:55:16.718Z,17.41
2019-05-17T18:57:50.324Z,17.33
2019-05-17T19:00:24.095Z,17.25
2019-05-17T19:02:56.888Z,17.20
2019-05-17T19:05:29.004Z,17.12
2019-05-17T19:08:01.393Z,17.05
2019-05-17T19:10:33.432Z,16.96
2019-05-17T19:13:05.789Z,16.90
2019-05-17T19:15:38.369Z,16.86
2019-05-17T19:18:10.689Z,16.80
2019-05-17T19:20:42.887Z,16.73
2019-05-17T19:23:15.180Z,16.71
2019-05-17T19:25:47.189Z,16.67
2019-05-17T19:28:19.288Z,16.63
2019-05-17T19:30:51.488Z,16.58
2019-05-17T19:33:23.824Z,16.55
2019-05-17T19:35:55.980Z,16.52
2019-05-17T19:38:28.568Z,16.48
2019-05-17T19:41:00.634Z,16.47
2019-05-17T19:43:33.356Z,16.46
2019-05-17T19:46:05.573Z,16.41
2019-05-17T19:48:37.707Z,16.37
2019-05-17T19:51:09.925Z,16.35
2019-05-17T19:53:42.333Z,16.31
2019-05-17T19:56:14.357Z,16.24
2019-05-17T19:58:46.700Z,16.20
2019-05-17T20:01:18.963Z,16.15
2019-05-17T20:03:51.156Z,16.11
2019-05-17T20:06:23.140Z,16.05
2019-05-17T20:08:55.424Z,15.99
2019-05-17T20:11:34.485Z,15.97
2019-05-17T20:14:01.227Z,15.96
2019-05-17T20:16:33.303Z,15.92
2019-05-17T20:19:05.573Z,15.89
2019-05-17T20:21:37.613Z,15.88
2019-05-17T20:24:09.943Z,15.83
2019-05-17T20:26:41.835Z,15.78
2019-05-17T20:29:13.875Z,15.74
2019-05-17T20:31:46.317Z,15.69
2019-05-17T20:34:18.541Z,15.64
2019-05-17T20:36:50.382Z,15.61
2019-05-17T20:39:22.342Z,15.56
2019-05-17T20:41:57.343Z,15.52
2019-05-17T20:44:28.173Z,15.49
2019-05-17T20:47:00.127Z,15.50
2019-05-17T20:49:32.351Z,15.49
2019-05-17T20:52:04.341Z,15.45
2019-05-17T20:54:36.635Z,15.42
2019-05-17T20:57:09.004Z,15.41
2019-05-17T20:59:40.958Z,15.40
2019-05-17T21:02:13.093Z,15.42
2019-05-17T21:04:44.995Z,15.42
2019-05-17T21:07:17.807Z,15.41
2019-05-17T21:09:50.059Z,15.42
2019-05-17T21:12:21.965Z,15.42
2019-05-17T21:14:56.399Z,15.42
2019-05-17T21:17:27.785Z,15.44
2019-05-17T21:20:00.752Z,15.46
2019-05-17T21:22:32.537Z,15.47
2019-05-17T21:25:04.715Z,15.48
2019-05-17T21:27:36.592Z,15.49
2019-05-17T21:30:09.961Z,15.52
2019-05-17T21:32:42.021Z,15.55
2019-05-17T21:35:14.197Z,15.58
2019-05-17T21:37:46.025Z,15.60
2019-05-17T21:40:18.501Z,15.64
2019-05-17T21:42:50.291Z,15.70
2019-05-17T21:45:22.507Z,15.73
2019-05-17T21:47:54.594Z,15.77
2019-05-17T21:50:28.455Z,15.80
2019-05-17T21:53:01.391Z,15.83
2019-05-17T21:55:33.313Z,15.86
2019-05-17T21:58:06.267Z,15.89
2019-05-17T22:01:20.946Z,15.93
2019-05-17T22:03:53.289Z,15.95
2019-05-17T22:06:25.483Z,15.98
2019-05-17T22:08:57.309Z,15.98
2019-05-17T22:11:29.297Z,16.04
2019-05-17T22:14:01.203Z,16.09
2019-05-17T22:16:33.417Z,16.12
2019-05-17T22:19:05.641Z,16.13
2019-05-17T22:21:37.785Z,16.14
2019-05-17T22:24:09.606Z,16.12
2019-05-17T22:26:43.337Z,16.13
2019-05-17T22:29:16.283Z,16.09
2019-05-17T22:31:48.268Z,16.09
2019-05-17T22:34:22.091Z,16.04
2019-05-17T22:36:54.164Z,16.01
2019-05-17T22:39:25.955Z,15.97
2019-05-17T22:41:57.815Z,15.96
2019-05-17T22:44:30.544Z,15.95
2019-05-17T22:47:03.628Z,15.93
2019-05-17T22:49:35.713Z,15.89
2019-05-17T22:52:07.588Z,15.87
2019-05-17T22:54:39.414Z,15.84
2019-05-17T22:57:11.286Z,15.84
2019-05-17T22:59:43.901Z,15.79
2019-05-17T23:02:15.832Z,15.75
2019-05-17T23:04:47.959Z,15.71
2019-05-17T23:07:20.197Z,15.68
2019-05-17T23:09:52.119Z,15.64
2019-05-17T23:12:24.222Z,15.61
2019-05-17T23:14:56.006Z,15.56
2019-05-17T23:17:28.158Z,15.51
2019-05-17T23:20:00.391Z,15.45
2019-05-17T23:22:32.485Z,15.43
2019-05-17T23:25:04.401Z,15.40
2019-05-17T23:27:36.409Z,15.39
2019-05-17T23:30:10.151Z,15.40
2019-05-17T23:32:42.193Z,15.38
2019-05-17T23:35:14.308Z,15.38
2019-05-17T23:37:46.323Z,15.39
2019-05-17T23:40:18.244Z,15.40
2019-05-17T23:42:49.988Z,15.44
2019-05-17T23:45:21.829Z,15.44
2019-05-17T23:47:53.641Z,15.45
2019-05-17T23:50:25.545Z,15.44
2019-05-17T23:52:57.779Z,15.46
2019-05-17T23:55:29.591Z,15.44
2019-05-17T23:58:01.916Z,15.43
